createdAt,value
2022-11-27T00:01:37.896Z,7.55
2022-11-27T00:04:08.924Z,7.50
2022-11-27T00:06:39.951Z,7.52
2022-11-27T00:09:16.266Z,7.80
2022-11-27T00:11:45.016Z,7.91
2022-11-27T00:14:15.316Z,7.83
2022-11-27T00:16:43.380Z,7.83
2022-11-27T00:19:11.858Z,7.85
2022-11-27T00:21:39.632Z,7.92
2022-11-27T00:24:08.887Z,7.89
2022-11-27T00:26:38.364Z,7.84
2022-11-27T00:29:09.627Z,7.79
2022-11-27T00:31:38.272Z,7.68
2022-11-27T00:34:08.705Z,7.69
2022-11-27T00:36:37.789Z,7.66
2022-11-27T00:39:05.972Z,7.66
2022-11-27T00:41:34.336Z,7.56
2022-11-27T00:44:01.921Z,7.51
2022-11-27T00:46:33.529Z,7.69
2022-11-27T00:49:04.223Z,7.80
2022-11-27T00:51:32.103Z,7.81
2022-11-27T00:53:59.986Z,7.73
2022-11-27T00:56:31.500Z,7.72
2022-11-27T00:58:59.308Z,7.67
2022-11-27T01:01:36.482Z,7.69
2022-11-27T01:04:06.874Z,7.76
2022-11-27T01:06:34.804Z,7.84
2022-11-27T01:09:03.216Z,7.89
2022-11-27T01:11:34.588Z,7.82
2022-11-27T01:14:07.067Z,7.83
2022-11-27T01:16:36.423Z,7.83
2022-11-27T01:19:06.376Z,8.06
2022-11-27T01:21:35.982Z,8.01
2022-11-27T01:24:05.427Z,7.82
2022-11-27T01:26:32.981Z,7.73
2022-11-27T01:29:00.694Z,7.62
2022-11-27T01:31:32.508Z,7.57
2022-11-27T01:34:11.726Z,7.55
2022-11-27T01:36:39.282Z,7.49
2022-11-27T01:39:06.877Z,7.45
2022-11-27T01:41:39.895Z,7.45
2022-11-27T01:44:25.533Z,7.35
2022-11-27T01:47:00.084Z,7.48
2022-11-27T01:49:46.393Z,7.57
2022-11-27T01:52:30.158Z,7.66
2022-11-27T01:55:21.625Z,7.62
2022-11-27T01:58:14.437Z,7.62
2022-11-27T02:00:42.483Z,7.68
2022-11-27T02:03:10.448Z,7.66
2022-11-27T02:05:38.157Z,7.61
2022-11-27T02:08:14.584Z,7.59
2022-11-27T02:12:03.127Z,7.63
2022-11-27T02:14:35.601Z,7.66
2022-11-27T02:17:20.602Z,7.63
2022-11-27T02:20:20.944Z,7.69
2022-11-27T02:23:40.641Z,7.54
2022-11-27T02:26:48.449Z,7.64
2022-11-27T02:29:22.902Z,7.61
2022-11-27T02:32:10.306Z,7.53
2022-11-27T02:34:50.745Z,7.62
2022-11-27T02:37:44.069Z,7.65
2022-11-27T02:40:26.149Z,7.57
2022-11-27T02:43:03.629Z,7.62
2022-11-27T02:45:45.448Z,7.53
2022-11-27T02:48:21.376Z,7.54
2022-11-27T02:50:52.763Z,7.65
2022-11-27T02:53:29.687Z,7.65
2022-11-27T02:55:59.120Z,7.59
2022-11-27T02:58:29.977Z,7.72
2022-11-27T03:00:58.795Z,7.83
2022-11-27T03:03:34.685Z,7.81
2022-11-27T03:06:09.597Z,7.76
2022-11-27T03:09:10.484Z,7.70
2022-11-27T03:11:38.525Z,7.68
2022-11-27T03:14:09.585Z,7.71
2022-11-27T03:16:54.788Z,7.77
2022-11-27T03:19:37.624Z,7.82
2022-11-27T03:22:05.677Z,7.62
2022-11-27T03:24:36.196Z,7.54
2022-11-27T03:27:05.324Z,7.55
2022-11-27T03:29:54.922Z,7.66
2022-11-27T03:32:22.793Z,7.70
2022-11-27T03:34:50.981Z,7.68
2022-11-27T03:37:18.649Z,7.67
2022-11-27T03:39:49.381Z,7.70
2022-11-27T03:42:33.658Z,7.66
2022-11-27T03:45:22.279Z,8.00
2022-11-27T03:48:04.598Z,7.95
2022-11-27T03:51:05.516Z,7.75
2022-11-27T03:54:02.525Z,7.56
2022-11-27T03:57:01.558Z,7.54
2022-11-27T03:59:38.986Z,7.63
2022-11-27T04:02:06.537Z,7.64
2022-11-27T04:04:34.141Z,7.61
2022-11-27T04:07:01.687Z,7.52
2022-11-27T04:09:29.177Z,7.66
2022-11-27T04:11:56.681Z,7.70
2022-11-27T04:14:24.195Z,7.78
2022-11-27T04:16:51.762Z,7.81
2022-11-27T04:19:19.234Z,7.45
2022-11-27T04:21:46.739Z,7.53
2022-11-27T04:24:14.352Z,7.78
2022-11-27T04:26:41.950Z,7.64
2022-11-27T04:29:09.511Z,7.74
2022-11-27T04:31:37.058Z,7.54
2022-11-27T04:34:04.578Z,7.24
2022-11-27T04:36:37.597Z,7.31
2022-11-27T04:39:06.716Z,7.35
2022-11-27T04:41:34.282Z,7.35
2022-11-27T04:44:02.060Z,7.35
2022-11-27T04:46:29.672Z,7.19
2022-11-27T04:48:57.256Z,7.45
2022-11-27T04:51:24.888Z,7.42
2022-11-27T04:53:52.348Z,7.29
2022-11-27T04:56:19.841Z,7.42
2022-11-27T04:58:47.369Z,7.27
2022-11-27T05:01:15.934Z,7.23
2022-11-27T05:03:43.440Z,7.18
2022-11-27T05:06:10.969Z,7.22
2022-11-27T05:08:38.413Z,7.14
2022-11-27T05:11:13.172Z,7.02
2022-11-27T05:13:41.652Z,7.09
2022-11-27T05:16:09.578Z,7.00
2022-11-27T05:18:37.468Z,7.04
2022-11-27T05:21:11.989Z,7.04
2022-11-27T05:23:39.575Z,6.93
2022-11-27T05:26:07.603Z,6.85
2022-11-27T05:28:35.145Z,6.77
2022-11-27T05:31:02.720Z,6.73
2022-11-27T05:33:30.248Z,6.97
2022-11-27T05:35:57.693Z,6.77
2022-11-27T05:38:25.245Z,6.85
2022-11-27T05:40:52.744Z,6.88
2022-11-27T05:43:20.263Z,6.71
2022-11-27T05:45:48.144Z,7.21
2022-11-27T05:48:15.605Z,7.29
2022-11-27T05:50:43.058Z,6.88
2022-11-27T05:53:10.561Z,7.11
2022-11-27T05:55:38.010Z,6.73
2022-11-27T05:58:05.540Z,6.67
2022-11-27T06:00:33.069Z,6.71
2022-11-27T06:03:00.707Z,6.54
2022-11-27T06:05:28.322Z,6.54
2022-11-27T06:07:55.939Z,6.63
2022-11-27T06:10:23.966Z,6.65
2022-11-27T06:12:51.414Z,6.76
2022-11-27T06:15:18.922Z,6.76
2022-11-27T06:17:46.339Z,6.82
2022-11-27T06:20:14.055Z,6.76
2022-11-27T06:22:41.519Z,6.72
2022-11-27T06:25:09.494Z,6.73
2022-11-27T06:27:37.466Z,6.89
2022-11-27T06:30:06.126Z,7.24
2022-11-27T06:32:33.602Z,7.32
2022-11-27T06:35:01.184Z,7.82
2022-11-27T06:37:28.776Z,7.65
2022-11-27T06:39:56.189Z,7.69
2022-11-27T06:42:23.799Z,7.33
2022-11-27T06:44:51.284Z,7.40
2022-11-27T06:47:18.770Z,7.34
2022-11-27T06:49:46.230Z,7.32
2022-11-27T06:52:13.788Z,7.25
2022-11-27T06:54:41.406Z,7.45
2022-11-27T06:57:09.149Z,7.38
2022-11-27T06:59:36.566Z,7.61
2022-11-27T07:02:04.316Z,7.33
2022-11-27T07:04:32.442Z,7.26
2022-11-27T07:07:00.025Z,7.45
2022-11-27T07:09:27.536Z,7.51
2022-11-27T07:11:55.063Z,7.61
2022-11-27T07:14:22.540Z,7.87
2022-11-27T07:16:50.055Z,7.79
2022-11-27T07:19:17.657Z,7.86
2022-11-27T07:21:47.945Z,7.87
2022-11-27T07:24:15.540Z,8.23
2022-11-27T07:26:43.030Z,8.06
2022-11-27T07:29:10.612Z,8.32
2022-11-27T07:31:38.269Z,8.18
2022-11-27T07:34:11.725Z,8.28
2022-11-27T07:36:43.221Z,8.34
2022-11-27T07:39:10.733Z,8.57
2022-11-27T07:41:38.738Z,8.53
2022-11-27T07:44:06.298Z,8.74
2022-11-27T07:46:33.905Z,8.97
2022-11-27T07:49:03.925Z,8.90
2022-11-27T07:51:31.538Z,9.13
2022-11-27T07:54:00.776Z,9.14
2022-11-27T07:56:28.573Z,9.22
2022-11-27T07:58:58.050Z,9.20
2022-11-27T08:01:25.843Z,9.23
2022-11-27T08:03:53.407Z,9.35
2022-11-27T08:06:24.812Z,9.32
2022-11-27T08:08:56.010Z,9.43
2022-11-27T08:11:30.486Z,9.52
2022-11-27T08:14:06.792Z,9.64
2022-11-27T08:16:36.444Z,9.88
2022-11-27T08:19:04.789Z,9.85
2022-11-27T08:21:35.411Z,9.95
2022-11-27T08:24:05.159Z,9.94
2022-11-27T08:26:32.896Z,10.06
2022-11-27T08:29:01.313Z,10.14
2022-11-27T08:31:30.052Z,10.22
2022-11-27T08:33:57.737Z,10.51
2022-11-27T08:36:28.132Z,10.50
2022-11-27T08:38:59.321Z,10.51
2022-11-27T08:41:26.851Z,10.43
2022-11-27T08:43:55.955Z,10.63
2022-11-27T08:46:23.513Z,10.53
2022-11-27T08:48:51.334Z,10.81
2022-11-27T08:51:19.011Z,10.90
2022-11-27T08:53:47.830Z,10.60
2022-11-27T08:56:19.190Z,10.71
2022-11-27T08:58:50.402Z,10.91
2022-11-27T09:01:29.677Z,10.56
2022-11-27T09:03:59.733Z,10.56
2022-11-27T09:06:31.423Z,10.51
2022-11-27T09:09:05.231Z,10.39
2022-11-27T09:11:34.534Z,10.64
2022-11-27T09:14:04.812Z,10.74
2022-11-27T09:16:33.127Z,10.91
2022-11-27T09:19:02.626Z,11.23
2022-11-27T09:21:31.683Z,10.61
2022-11-27T09:24:09.843Z,10.44
2022-11-27T09:26:38.614Z,10.43
2022-11-27T09:29:06.408Z,10.80
2022-11-27T09:31:33.980Z,10.86
2022-11-27T09:34:05.685Z,11.07
2022-11-27T09:36:33.787Z,10.70
2022-11-27T09:39:03.585Z,10.82
2022-11-27T09:41:50.478Z,10.65
2022-11-27T09:44:47.021Z,10.85
2022-11-27T09:47:42.492Z,11.20
2022-11-27T09:50:17.894Z,11.29
2022-11-27T09:52:55.086Z,11.55
2022-11-27T09:55:42.632Z,11.26
2022-11-27T09:58:22.361Z,11.36
2022-11-27T10:00:49.964Z,11.72
2022-11-27T10:03:25.736Z,11.58
2022-11-27T10:06:36.215Z,11.70
2022-11-27T10:09:19.350Z,11.88
2022-11-27T10:12:43.530Z,11.79
2022-11-27T10:15:56.713Z,11.96
2022-11-27T10:18:40.955Z,12.06
2022-11-27T10:21:17.765Z,12.86
2022-11-27T10:24:05.991Z,12.87
2022-11-27T10:26:57.738Z,12.45
2022-11-27T10:29:52.273Z,12.29
2022-11-27T10:35:30.798Z,12.56
2022-11-27T10:38:26.630Z,12.48
2022-11-27T10:41:34.301Z,12.81
2022-11-27T10:44:29.384Z,12.78
2022-11-27T10:47:06.615Z,12.89
2022-11-27T10:49:38.452Z,12.98
2022-11-27T10:52:06.002Z,13.37
2022-11-27T10:54:39.471Z,13.38
2022-11-27T10:57:31.587Z,13.85
2022-11-27T11:00:24.261Z,14.28
2022-11-27T11:03:07.808Z,14.04
2022-11-27T11:06:18.540Z,13.68
2022-11-27T11:08:27.297Z,13.81
2022-11-27T11:11:04.952Z,13.51
2022-11-27T11:13:46.082Z,13.42
2022-11-27T11:16:24.555Z,13.50
2022-11-27T11:18:55.429Z,13.53
2022-11-27T11:21:45.134Z,13.48
2022-11-27T11:24:29.183Z,13.65
2022-11-27T11:27:07.374Z,13.97
2022-11-27T11:29:48.848Z,13.84
2022-11-27T11:32:29.590Z,13.86
2022-11-27T11:35:26.856Z,13.65
2022-11-27T11:37:55.737Z,13.15
2022-11-27T11:40:33.371Z,13.18
2022-11-27T11:43:10.606Z,13.15
2022-11-27T11:45:48.900Z,13.09
2022-11-27T11:48:28.163Z,13.02
2022-11-27T11:51:08.561Z,12.85
2022-11-27T11:53:42.975Z,12.76
2022-11-27T11:56:28.957Z,13.36
2022-11-27T11:59:52.624Z,12.96
2022-11-27T12:02:43.115Z,12.75
2022-11-27T12:05:45.449Z,12.70
2022-11-27T12:09:37.489Z,12.49
2022-11-27T12:15:46.375Z,12.44
2022-11-27T12:21:50.623Z,12.99
2022-11-27T12:24:48.468Z,12.41
2022-11-27T12:42:25.844Z,11.90
2022-11-27T12:45:17.971Z,11.80
2022-11-27T12:47:52.826Z,11.97
2022-11-27T12:50:44.610Z,11.86
2022-11-27T12:53:35.471Z,11.96
2022-11-27T12:56:24.714Z,12.78
2022-11-27T12:59:04.172Z,12.61
2022-11-27T13:01:41.662Z,12.25
2022-11-27T13:04:37.719Z,12.34
2022-11-27T13:07:58.088Z,11.98
2022-11-27T13:10:39.762Z,11.99
2022-11-27T13:13:14.438Z,12.28
2022-11-27T13:16:00.073Z,12.29
2022-11-27T13:18:47.331Z,12.22
2022-11-27T13:21:28.207Z,12.20
2022-11-27T13:23:56.345Z,11.87
2022-11-27T13:27:04.074Z,12.09
2022-11-27T13:30:05.310Z,11.95
2022-11-27T13:32:49.337Z,11.92
2022-11-27T13:35:42.892Z,11.91
2022-11-27T13:38:26.312Z,12.14
2022-11-27T13:40:56.419Z,11.97
2022-11-27T13:43:43.931Z,12.08
2022-11-27T13:46:29.769Z,12.46
2022-11-27T13:49:03.446Z,12.02
2022-11-27T13:51:39.200Z,12.10
2022-11-27T13:54:28.756Z,11.88
2022-11-27T13:57:08.921Z,11.87
2022-11-27T13:59:39.608Z,11.60
2022-11-27T14:02:10.449Z,11.60
2022-11-27T14:04:56.575Z,11.37
2022-11-27T14:07:41.905Z,11.38
2022-11-27T14:10:27.041Z,11.25
2022-11-27T14:13:24.844Z,11.26
2022-11-27T14:16:03.853Z,11.39
2022-11-27T14:18:33.795Z,11.32
2022-11-27T14:21:04.265Z,11.31
2022-11-27T14:23:54.293Z,11.36
2022-11-27T14:26:27.621Z,11.23
2022-11-27T14:28:56.960Z,11.21
2022-11-27T14:31:33.342Z,11.23
2022-11-27T14:34:16.100Z,11.33
2022-11-27T14:36:51.232Z,11.33
2022-11-27T14:39:37.086Z,11.21
2022-11-27T14:42:18.513Z,11.18
2022-11-27T14:45:10.211Z,11.21
2022-11-27T14:47:50.226Z,11.25
2022-11-27T14:50:25.631Z,11.17
2022-11-27T14:53:01.194Z,11.21
2022-11-27T14:55:34.746Z,11.17
2022-11-27T14:58:08.593Z,11.10
2022-11-27T15:01:01.413Z,11.11
2022-11-27T15:03:29.822Z,11.16
2022-11-27T15:06:10.344Z,11.12
2022-11-27T15:08:39.116Z,11.13
2022-11-27T15:11:07.575Z,11.09
2022-11-27T15:13:39.054Z,11.09
2022-11-27T15:16:21.300Z,11.07
2022-11-27T15:19:31.228Z,10.97
2022-11-27T15:21:59.639Z,10.93
2022-11-27T15:24:41.578Z,10.99
2022-11-27T15:27:19.080Z,11.08
2022-11-27T15:30:06.198Z,10.96
2022-11-27T15:33:00.817Z,10.99
2022-11-27T15:36:07.245Z,11.00
2022-11-27T15:38:41.802Z,11.04
2022-11-27T15:41:32.934Z,11.07
2022-11-27T15:44:25.151Z,10.94
2022-11-27T15:46:56.947Z,10.70
2022-11-27T15:49:27.190Z,10.67
2022-11-27T15:52:09.509Z,10.59
2022-11-27T15:54:44.315Z,10.63
2022-11-27T15:57:17.278Z,10.62
2022-11-27T15:59:50.415Z,10.61
2022-11-27T16:02:20.283Z,10.63
2022-11-27T16:04:59.700Z,10.64
2022-11-27T16:07:33.039Z,10.63
2022-11-27T16:10:06.090Z,10.64
2022-11-27T16:12:38.036Z,10.59
2022-11-27T16:15:14.959Z,10.63
2022-11-27T16:18:04.235Z,10.59
2022-11-27T16:20:33.315Z,10.55
2022-11-27T16:23:08.492Z,10.57
2022-11-27T16:25:41.646Z,10.60
2022-11-27T16:28:17.054Z,10.52
2022-11-27T16:30:59.320Z,10.50
2022-11-27T16:33:30.745Z,10.52
2022-11-27T16:36:15.100Z,10.54
2022-11-27T16:38:46.506Z,10.49
2022-11-27T16:41:20.715Z,10.52
2022-11-27T16:43:53.478Z,10.53
2022-11-27T16:46:30.853Z,10.61
2022-11-27T16:49:04.134Z,10.60
2022-11-27T16:51:34.702Z,10.50
2022-11-27T16:54:07.380Z,10.52
2022-11-27T16:56:40.058Z,10.44
2022-11-27T16:59:13.617Z,10.40
2022-11-27T17:01:47.372Z,10.40
2022-11-27T17:04:23.168Z,10.40
2022-11-27T17:07:08.058Z,10.45
2022-11-27T17:09:58.955Z,10.41
2022-11-27T17:12:28.583Z,10.45
2022-11-27T17:15:14.971Z,10.47
2022-11-27T17:17:47.597Z,10.50
2022-11-27T17:20:17.717Z,10.47
2022-11-27T17:22:50.917Z,10.39
2022-11-27T17:25:20.379Z,10.41
2022-11-27T17:28:10.427Z,10.38
2022-11-27T17:30:45.170Z,10.39
2022-11-27T17:33:26.825Z,10.48
2022-11-27T17:35:59.476Z,10.40
2022-11-27T17:38:31.523Z,10.26
2022-11-27T17:41:11.058Z,10.30
2022-11-27T17:43:42.404Z,10.31
2022-11-27T17:46:30.823Z,10.23
2022-11-27T17:49:12.523Z,10.17
2022-11-27T17:51:43.811Z,10.34
2022-11-27T17:54:13.514Z,10.24
2022-11-27T17:56:45.336Z,10.21
2022-11-27T17:59:25.687Z,10.27
2022-11-27T18:01:55.976Z,10.24
2022-11-27T18:04:31.977Z,10.21
2022-11-27T18:07:02.883Z,10.20
2022-11-27T18:09:36.264Z,10.15
2022-11-27T18:12:10.559Z,10.19
2022-11-27T18:14:42.310Z,10.29
2022-11-27T18:17:21.308Z,10.25
2022-11-27T18:19:58.589Z,10.24
2022-11-27T18:22:36.681Z,10.16
2022-11-27T18:25:10.709Z,10.13
2022-11-27T18:27:41.722Z,10.12
2022-11-27T18:30:12.368Z,10.08
2022-11-27T18:33:05.615Z,10.16
2022-11-27T18:36:02.415Z,10.25
2022-11-27T18:38:36.418Z,10.18
2022-11-27T18:41:31.291Z,10.02
2022-11-27T18:46:47.212Z,9.90
2022-11-27T18:49:23.495Z,9.90
2022-11-27T18:51:58.188Z,9.84
2022-11-27T18:54:31.268Z,9.77
2022-11-27T18:57:03.016Z,9.70
2022-11-27T18:59:56.157Z,9.67
2022-11-27T19:02:25.745Z,9.68
2022-11-27T19:04:57.689Z,9.59
2022-11-27T19:07:34.756Z,9.62
2022-11-27T19:10:24.079Z,9.55
2022-11-27T19:12:54.351Z,9.52
2022-11-27T19:15:27.473Z,9.52
2022-11-27T19:17:59.107Z,9.52
2022-11-27T19:20:33.466Z,9.62
2022-11-27T19:23:26.124Z,9.59
2022-11-27T19:25:56.286Z,9.54
2022-11-27T19:28:47.945Z,9.42
2022-11-27T19:31:18.699Z,9.47
2022-11-27T19:34:00.548Z,9.45
2022-11-27T19:36:32.136Z,9.41
2022-11-27T19:39:09.675Z,9.45
2022-11-27T19:44:26.049Z,9.54
2022-11-27T19:47:04.109Z,9.45
2022-11-27T19:49:34.040Z,9.43
2022-11-27T19:52:09.352Z,9.39
2022-11-27T19:54:41.293Z,9.43
2022-11-27T19:57:12.803Z,9.41
2022-11-27T19:59:48.080Z,9.34
2022-11-27T20:02:16.404Z,9.39
2022-11-27T20:04:45.696Z,9.40
2022-11-27T20:07:15.079Z,9.45
2022-11-27T20:09:45.536Z,9.54
2022-11-27T20:12:21.434Z,9.44
2022-11-27T20:15:01.067Z,9.40
2022-11-27T20:17:31.769Z,9.39
2022-11-27T20:20:06.893Z,9.37
2022-11-27T20:22:40.466Z,9.38
2022-11-27T20:25:20.437Z,9.40
2022-11-27T20:27:53.109Z,9.33
2022-11-27T20:30:30.647Z,9.32
2022-11-27T20:33:07.503Z,9.32
2022-11-27T20:35:44.486Z,9.30
2022-11-27T20:41:13.586Z,9.26
2022-11-27T20:43:48.514Z,9.23
2022-11-27T20:46:22.279Z,9.25
2022-11-27T20:48:53.893Z,9.24
2022-11-27T20:51:34.669Z,9.20
2022-11-27T20:54:13.159Z,9.19
2022-11-27T20:56:44.385Z,9.11
2022-11-27T20:59:16.409Z,9.08
2022-11-27T21:01:44.409Z,9.15
2022-11-27T21:04:23.039Z,9.19
2022-11-27T21:06:53.702Z,9.47
2022-11-27T21:09:22.628Z,9.45
2022-11-27T21:11:51.109Z,9.22
2022-11-27T21:14:21.983Z,9.05
2022-11-27T21:16:53.046Z,8.93
2022-11-27T21:19:27.953Z,8.90
2022-11-27T21:21:58.597Z,8.80
2022-11-27T21:24:31.227Z,8.88
2022-11-27T21:26:59.511Z,8.76
2022-11-27T21:29:31.771Z,8.78
2022-11-27T21:32:00.559Z,8.80
2022-11-27T21:34:29.584Z,8.88
2022-11-27T21:36:58.394Z,8.81
2022-11-27T21:39:27.561Z,8.87
2022-11-27T21:41:57.878Z,8.91
2022-11-27T21:44:27.964Z,8.92
2022-11-27T21:47:00.731Z,8.92
2022-11-27T21:49:51.679Z,8.86
2022-11-27T21:52:23.229Z,8.85
2022-11-27T21:54:52.882Z,8.83
2022-11-27T21:57:22.251Z,8.90
2022-11-27T21:59:51.631Z,8.84
2022-11-27T22:02:21.794Z,8.85
2022-11-27T22:04:49.873Z,8.87
2022-11-27T22:07:21.232Z,8.83
2022-11-27T22:09:48.931Z,8.91
2022-11-27T22:12:16.753Z,8.95
2022-11-27T22:14:46.945Z,8.93
2022-11-27T22:17:15.146Z,8.95
2022-11-27T22:19:43.128Z,8.98
2022-11-27T22:22:11.775Z,8.92
2022-11-27T22:24:42.025Z,8.90
2022-11-27T22:27:09.909Z,8.85
2022-11-27T22:29:37.863Z,8.93
2022-11-27T22:32:05.935Z,8.92
2022-11-27T22:34:34.581Z,8.97
2022-11-27T22:37:03.874Z,8.96
2022-11-27T22:39:32.283Z,8.95
2022-11-27T22:42:00.079Z,8.91
2022-11-27T22:44:27.681Z,8.88
2022-11-27T22:46:55.422Z,8.97
2022-11-27T22:49:23.371Z,8.90
2022-11-27T22:51:52.312Z,8.81
2022-11-27T22:54:24.894Z,8.90
2022-11-27T22:56:56.366Z,8.90
2022-11-27T22:59:33.295Z,9.13
2022-11-27T23:02:04.161Z,9.23
2022-11-27T23:04:36.459Z,9.13
2022-11-27T23:07:05.704Z,9.19
2022-11-27T23:09:34.905Z,8.91
2022-11-27T23:12:02.678Z,8.84
2022-11-27T23:14:30.524Z,8.93
2022-11-27T23:16:58.303Z,8.78
2022-11-27T23:19:25.957Z,8.88
2022-11-27T23:21:53.858Z,8.80
2022-11-27T23:24:21.451Z,9.03
2022-11-27T23:26:49.108Z,8.81
2022-11-27T23:29:16.951Z,8.72
2022-11-27T23:31:44.666Z,8.69
2022-11-27T23:34:17.069Z,8.91
2022-11-27T23:36:45.231Z,8.79
2022-11-27T23:39:14.246Z,9.30
2022-11-27T23:41:42.725Z,9.04
2022-11-27T23:44:11.750Z,8.84
2022-11-27T23:46:42.083Z,8.68
2022-11-27T23:49:09.678Z,8.57
2022-11-27T23:51:38.820Z,8.60
2022-11-27T23:54:11.438Z,8.55
2022-11-27T23:56:39.639Z,8.45
2022-11-27T23:59:07.849Z,8.53
